Main page
METAR-TAF:

METAR-TAF

Airports :

Tiree, Scotland

Tiree Airport

latitude: 56-30N, longitude: 006-53W, elevation: 12 m

Current weather observation

The report was made 48 minutes ago, at 23:20 UTC
Wind 18 kt from variable directions
Temperature 14°C
Humidity 94%
Pressure 1011 hPa
Visibility 10 km or more

METAR: EGPU 192320Z AUTO VRB18KT 9999 BKN031/// 14/13 Q1011

Time: 01:08 (00:08 UTC)

Forecast

The report was made 10 hours and 9 minutes ago, at 13:59 UTC
Forecast valid from 19 at 15 UTC to 19 at 18 UTC
Wind 15 kt from the South
Visibility 10 km or more
Few clouds at a height of 2000 ft
Broken clouds at a height of 4000 ft
Probability 30% :
Temporary
from 19 at 15 UTC to 19 at 18 UTC
Broken clouds at a height of 1200 ft

TAF: EGPU 191359Z 1915/1918 17015KT 9999 FEW020 BKN040 PROB30 TEMPO 1915/1918 BKN012

Weather observations and forecasts of more than 4000 airports (METAR and TAF reports).

The available stations are represented by yellow and red dots on the map.

Hover mouse over dot to see the name of the station.

Then click to see weather observations and forecasts.

To change the map : click on the green buttons with a black cross to zoom in, on the green button with a dash to zoom out, or on the green arrows for adjacent maps.


METAR-TAF: